createdAt,value
2023-10-06T00:03:31.479Z,101497.63
2023-10-06T00:06:00.123Z,101497.63
2023-10-06T00:08:34.235Z,101499.31
2023-10-06T00:11:12.877Z,101498.94
2023-10-06T00:13:40.008Z,101505.25
2023-10-06T00:16:08.678Z,101501.47
2023-10-06T00:18:38.846Z,101512.44
2023-10-06T00:21:16.140Z,101516.38
2023-10-06T00:23:44.499Z,101518.06
2023-10-06T00:26:13.502Z,101521.75
2023-10-06T00:28:40.748Z,101517.38
2023-10-06T00:31:09.655Z,101519.38
2023-10-06T00:33:39.701Z,101503.59
2023-10-06T00:36:18.918Z,101514.44
2023-10-06T00:38:48.488Z,101518.25
2023-10-06T00:41:16.170Z,101518.53
2023-10-06T00:43:46.980Z,101516.16
2023-10-06T00:46:15.182Z,101521.06
2023-10-06T00:48:44.309Z,101522.88
2023-10-06T00:51:18.205Z,101524.03
2023-10-06T00:53:46.973Z,101528.09
2023-10-06T00:56:17.752Z,101523.19
2023-10-06T00:58:45.213Z,101527.06
2023-10-06T01:01:18.663Z,101527.38
2023-10-06T01:03:50.354Z,101515.81
2023-10-06T01:06:24.184Z,101509.50
2023-10-06T01:08:57.054Z,101514.00
2023-10-06T01:11:28.177Z,101512.31
2023-10-06T01:13:58.767Z,101503.72
2023-10-06T01:16:31.215Z,101491.31
2023-10-06T01:19:15.333Z,101524.38
2023-10-06T01:21:49.533Z,101511.84
2023-10-06T01:24:27.019Z,101514.25
2023-10-06T01:26:55.247Z,101508.16
2023-10-06T01:29:23.755Z,101513.50
2023-10-06T01:31:51.529Z,101509.03
2023-10-06T01:34:19.795Z,101504.66
2023-10-06T01:36:53.388Z,101510.25
2023-10-06T01:39:26.872Z,101508.00
2023-10-06T01:41:54.276Z,101502.78
2023-10-06T01:44:21.269Z,101504.06
2023-10-06T01:46:54.671Z,101453.22
2023-10-06T01:49:23.110Z,101497.00
2023-10-06T01:54:29.249Z,101503.00
2023-10-06T01:56:56.632Z,101501.59
2023-10-06T01:59:23.600Z,101504.13
2023-10-06T02:01:50.865Z,101508.22
2023-10-06T02:04:20.329Z,101516.88
2023-10-06T02:06:52.320Z,101513.63
2023-10-06T02:09:19.534Z,101516.44
2023-10-06T02:11:52.121Z,101505.91
2023-10-06T02:14:19.745Z,101511.38
2023-10-06T02:16:47.620Z,101522.63
2023-10-06T02:19:17.799Z,101509.53
2023-10-06T02:21:47.100Z,101517.41
2023-10-06T02:24:14.227Z,101512.94
2023-10-06T02:26:41.891Z,101517.28
2023-10-06T02:29:23.594Z,101513.19
2023-10-06T02:31:51.058Z,101512.00
2023-10-06T02:34:30.785Z,101519.41
2023-10-06T02:36:58.335Z,101523.31
2023-10-06T02:39:32.542Z,101523.03
2023-10-06T02:42:02.233Z,101522.44
2023-10-06T02:44:31.742Z,101521.97
2023-10-06T02:47:02.471Z,101524.59
2023-10-06T02:49:35.527Z,101514.84
2023-10-06T02:52:06.470Z,101508.22
2023-10-06T02:54:33.594Z,101511.28
2023-10-06T02:57:04.347Z,101507.16
2023-10-06T02:59:35.896Z,101520.22
2023-10-06T03:02:08.016Z,101516.72
2023-10-06T03:04:37.507Z,101511.63
2023-10-06T03:07:13.007Z,101516.84
2023-10-06T03:09:45.430Z,101515.03
2023-10-06T03:12:21.561Z,101518.66
2023-10-06T03:14:50.118Z,101517.97
2023-10-06T03:17:20.661Z,101531.16
2023-10-06T03:20:08.192Z,101531.03
2023-10-06T03:22:42.309Z,101534.72
2023-10-06T03:25:18.781Z,101537.97
2023-10-06T03:27:47.045Z,101543.94
2023-10-06T03:30:28.536Z,101537.63
2023-10-06T03:32:56.242Z,101540.41
2023-10-06T03:35:24.833Z,101521.94
2023-10-06T03:38:09.311Z,101541.50
2023-10-06T03:40:54.524Z,101529.16
2023-10-06T03:43:40.667Z,101540.28
2023-10-06T03:46:12.183Z,101554.53
2023-10-06T03:48:40.596Z,101546.41
2023-10-06T03:51:07.513Z,101544.19
2023-10-06T03:53:34.771Z,101546.28
2023-10-06T03:56:02.023Z,101550.88
2023-10-06T03:58:29.571Z,101548.66
2023-10-06T04:00:57.207Z,101549.13
2023-10-06T04:03:25.829Z,101550.34
2023-10-06T04:05:53.173Z,101547.84
2023-10-06T04:08:24.783Z,101554.59
2023-10-06T04:10:56.213Z,101549.06
2023-10-06T04:13:24.320Z,101536.75
2023-10-06T04:15:53.366Z,101546.00
2023-10-06T04:18:25.106Z,101539.97
2023-10-06T04:20:54.711Z,101543.66
2023-10-06T04:23:25.864Z,101530.38
2023-10-06T04:25:57.802Z,101542.50
2023-10-06T04:28:30.459Z,101547.38
2023-10-06T04:31:02.421Z,101530.31
2023-10-06T04:33:30.110Z,101547.91
2023-10-06T04:36:12.260Z,101553.22
2023-10-06T04:38:41.128Z,101554.66
2023-10-06T04:41:09.953Z,101551.59
2023-10-06T04:43:41.083Z,101554.00
2023-10-06T04:46:08.292Z,101551.91
2023-10-06T04:48:39.317Z,101553.34
2023-10-06T04:51:10.762Z,101554.06
2023-10-06T04:53:39.193Z,101555.63
2023-10-06T04:56:08.105Z,101553.41
2023-10-06T04:58:40.144Z,101563.69
2023-10-06T05:01:09.307Z,101561.09
2023-10-06T05:03:47.792Z,101567.06
2023-10-06T05:06:18.692Z,101560.91
2023-10-06T05:08:48.872Z,101567.44
2023-10-06T05:11:16.652Z,101570.72
2023-10-06T05:13:44.397Z,101571.19
2023-10-06T05:16:12.960Z,101573.06
2023-10-06T05:18:40.163Z,101583.28
2023-10-06T05:21:08.026Z,101586.53
2023-10-06T05:23:36.900Z,101591.69
2023-10-06T05:26:09.394Z,101594.13
2023-10-06T05:28:38.552Z,101581.09
2023-10-06T05:31:08.045Z,101583.75
2023-10-06T05:33:36.120Z,101561.34
2023-10-06T05:36:11.220Z,101594.31
2023-10-06T05:38:40.454Z,101605.09
2023-10-06T05:41:13.712Z,101602.66
2023-10-06T05:43:41.784Z,101588.78
2023-10-06T05:46:10.358Z,101608.50
2023-10-06T05:48:39.529Z,101606.50
2023-10-06T05:51:10.137Z,101611.13
2023-10-06T05:53:42.375Z,101622.09
2023-10-06T05:56:10.168Z,101626.69
2023-10-06T05:58:42.064Z,101618.16
2023-10-06T06:01:14.618Z,101623.69
2023-10-06T06:03:49.064Z,101624.00
2023-10-06T06:06:17.431Z,101625.09
2023-10-06T06:08:48.986Z,101615.34
2023-10-06T06:11:17.244Z,101634.22
2023-10-06T06:13:48.245Z,101627.84
2023-10-06T06:16:20.275Z,101641.34
2023-10-06T06:18:49.714Z,101631.13
2023-10-06T06:21:17.763Z,101635.44
2023-10-06T06:23:47.959Z,101629.28
2023-10-06T06:26:18.257Z,101642.88
2023-10-06T06:28:46.068Z,101640.94
2023-10-06T06:31:17.765Z,101637.63
2023-10-06T06:33:45.352Z,101639.31
2023-10-06T06:36:14.257Z,101639.78
2023-10-06T06:38:41.556Z,101640.78
2023-10-06T06:41:10.145Z,101644.16
2023-10-06T06:43:37.410Z,101641.78
2023-10-06T06:46:04.510Z,101654.28
2023-10-06T06:48:32.576Z,101662.88
2023-10-06T06:50:59.618Z,101664.81
2023-10-06T06:53:27.353Z,101667.03
2023-10-06T06:55:54.776Z,101668.44
2023-10-06T06:58:23.753Z,101680.00
2023-10-06T07:00:50.930Z,101681.34
2023-10-06T07:03:18.531Z,101687.00
2023-10-06T07:05:45.559Z,101678.16
2023-10-06T07:08:13.334Z,101687.56
2023-10-06T07:10:47.881Z,101678.47
2023-10-06T07:13:16.174Z,101682.09
2023-10-06T07:15:45.892Z,101681.75
2023-10-06T07:18:15.966Z,101676.97
2023-10-06T07:20:45.450Z,101680.91
2023-10-06T07:23:12.894Z,101684.13
2023-10-06T07:25:41.255Z,101681.00
2023-10-06T07:28:08.741Z,101685.03
2023-10-06T07:30:36.236Z,101682.69
2023-10-06T07:33:07.189Z,101678.50
2023-10-06T07:35:52.695Z,101687.97
2023-10-06T07:38:20.151Z,101692.53
2023-10-06T07:40:47.237Z,101692.94
2023-10-06T07:43:17.019Z,101688.91
2023-10-06T07:45:44.099Z,101687.38
2023-10-06T07:48:12.894Z,101701.38
2023-10-06T07:50:39.962Z,101696.81
2023-10-06T07:53:07.814Z,101694.47
2023-10-06T07:55:34.946Z,101682.81
2023-10-06T07:58:04.436Z,101682.34
2023-10-06T08:00:32.130Z,101695.00
2023-10-06T08:03:00.985Z,101698.00
2023-10-06T08:05:31.477Z,101701.69
2023-10-06T08:08:00.025Z,101698.63
2023-10-06T08:10:31.869Z,101699.44
2023-10-06T08:13:03.191Z,101692.63
2023-10-06T08:15:33.429Z,101697.63
2023-10-06T08:18:01.839Z,101680.31
2023-10-06T08:20:32.118Z,101697.09
2023-10-06T08:23:01.162Z,101692.09
2023-10-06T08:25:30.089Z,101695.25
2023-10-06T08:28:08.752Z,101682.72
2023-10-06T08:30:38.550Z,101696.25
2023-10-06T08:33:15.040Z,101697.53
2023-10-06T08:35:45.583Z,101686.56
2023-10-06T08:38:13.007Z,101700.13
2023-10-06T08:40:45.753Z,101692.91
2023-10-06T08:43:19.988Z,101695.56
2023-10-06T08:45:47.609Z,101696.88
2023-10-06T08:48:16.943Z,101698.78
2023-10-06T08:50:46.107Z,101690.91
2023-10-06T08:53:16.267Z,101702.72
2023-10-06T08:55:45.532Z,101702.41
2023-10-06T08:58:15.805Z,101699.81
2023-10-06T09:00:45.758Z,101703.56
2023-10-06T09:03:15.873Z,101700.84
2023-10-06T09:05:45.726Z,101691.22
2023-10-06T09:08:16.034Z,101683.91
2023-10-06T09:10:45.386Z,101697.38
2023-10-06T09:13:14.097Z,101699.75
2023-10-06T09:15:42.342Z,101696.75
2023-10-06T09:18:20.713Z,101697.38
2023-10-06T09:20:50.135Z,101683.66
2023-10-06T09:23:31.559Z,101696.72
2023-10-06T09:25:59.482Z,101693.94
2023-10-06T09:28:28.022Z,101697.00
2023-10-06T09:31:01.603Z,101702.13
2023-10-06T09:33:32.853Z,101697.06
2023-10-06T09:36:08.426Z,101687.38
2023-10-06T09:38:37.721Z,101699.44
2023-10-06T09:41:06.736Z,101697.81
2023-10-06T09:43:36.055Z,101694.97
2023-10-06T09:46:10.136Z,101695.19
2023-10-06T09:48:39.058Z,101696.00
2023-10-06T09:51:09.816Z,101688.28
2023-10-06T09:53:44.939Z,101700.84
2023-10-06T09:56:14.278Z,101698.22
2023-10-06T09:58:46.201Z,101703.94
2023-10-06T10:01:15.530Z,101693.31
2023-10-06T10:03:43.751Z,101694.25
2023-10-06T10:06:15.385Z,101695.34
2023-10-06T10:08:43.082Z,101681.38
2023-10-06T10:11:15.729Z,101700.47
2023-10-06T10:14:07.981Z,101657.38
2023-10-06T10:16:51.052Z,101694.31
2023-10-06T10:19:21.463Z,101665.31
2023-10-06T10:21:50.791Z,101641.47
2023-10-06T10:25:05.309Z,101684.25
2023-10-06T10:27:13.637Z,101678.78
2023-10-06T10:29:42.200Z,101675.78
2023-10-06T10:32:14.557Z,101672.06
2023-10-06T10:35:07.061Z,101664.28
2023-10-06T10:37:56.057Z,101664.75
2023-10-06T10:40:26.166Z,101659.09
2023-10-06T10:43:03.457Z,101650.53
2023-10-06T10:45:51.924Z,101517.50
2023-10-06T10:48:20.097Z,101654.59
2023-10-06T10:50:57.561Z,101650.34
2023-10-06T10:53:31.670Z,101657.69
2023-10-06T10:56:01.529Z,101648.16
2023-10-06T10:58:58.703Z,101641.75
2023-10-06T11:01:31.630Z,101640.41
2023-10-06T11:04:35.910Z,101630.81
2023-10-06T11:07:11.510Z,101601.09
2023-10-06T11:09:48.342Z,101623.94
2023-10-06T11:12:26.361Z,101610.38
2023-10-06T11:14:55.182Z,101607.31
2023-10-06T11:17:24.409Z,101609.50
2023-10-06T11:20:14.656Z,101610.31
2023-10-06T11:22:54.309Z,101609.09
2023-10-06T11:25:29.527Z,101588.63
2023-10-06T11:28:05.199Z,101591.34
2023-10-06T11:30:36.600Z,101590.00
2023-10-06T11:33:05.876Z,101593.78
2023-10-06T11:35:34.460Z,101591.31
2023-10-06T11:38:03.485Z,101594.00
2023-10-06T11:40:32.356Z,101588.69
2023-10-06T11:43:10.853Z,101587.63
2023-10-06T11:45:38.153Z,101595.41
2023-10-06T11:48:26.274Z,101575.47
2023-10-06T11:51:00.410Z,101580.56
2023-10-06T11:53:36.649Z,101575.72
2023-10-06T11:56:11.400Z,101579.94
2023-10-06T11:58:41.878Z,101576.66
2023-10-06T12:01:36.713Z,101587.13
2023-10-06T12:04:09.599Z,101580.78
2023-10-06T12:06:40.212Z,101571.81
2023-10-06T12:09:09.632Z,101575.53
2023-10-06T12:11:40.303Z,101578.53
2023-10-06T12:14:12.128Z,101572.72
2023-10-06T12:16:39.472Z,101576.53
2023-10-06T12:19:08.410Z,101584.41
2023-10-06T12:21:36.388Z,101570.09
2023-10-06T12:24:04.476Z,101571.22
2023-10-06T12:26:31.594Z,101579.00
2023-10-06T12:29:00.578Z,101580.25
2023-10-06T12:31:28.701Z,101577.28
2023-10-06T12:34:06.790Z,101576.13
2023-10-06T12:36:36.673Z,101583.16
2023-10-06T12:39:06.255Z,101574.63
2023-10-06T12:41:33.351Z,101564.69
2023-10-06T12:44:05.616Z,101567.47
2023-10-06T12:46:34.530Z,101568.91
2023-10-06T12:49:08.139Z,101559.00
2023-10-06T12:51:35.593Z,101560.00
2023-10-06T12:54:03.087Z,101568.03
2023-10-06T12:56:30.115Z,101563.19
2023-10-06T12:58:57.628Z,101557.91
2023-10-06T13:01:27.083Z,101559.38
2023-10-06T13:03:55.438Z,101548.78
2023-10-06T13:06:24.094Z,101549.50
2023-10-06T13:08:51.824Z,101547.78
2023-10-06T13:11:19.643Z,101543.78
2023-10-06T13:13:50.407Z,101542.97
2023-10-06T13:16:18.407Z,101548.13
2023-10-06T13:18:47.279Z,101531.19
2023-10-06T13:21:14.291Z,101541.78
2023-10-06T13:23:41.687Z,101532.03
2023-10-06T13:26:20.499Z,101521.50
2023-10-06T13:28:59.212Z,101527.97
2023-10-06T13:31:26.251Z,101532.75
2023-10-06T13:33:55.684Z,101540.91
2023-10-06T13:36:22.817Z,101530.19
2023-10-06T13:38:51.389Z,101539.75
2023-10-06T13:41:19.900Z,101530.06
2023-10-06T13:43:47.310Z,101529.31
2023-10-06T13:46:15.882Z,101523.88
2023-10-06T13:48:43.266Z,101530.06
2023-10-06T13:51:12.782Z,101518.81
2023-10-06T13:53:42.273Z,101508.41
2023-10-06T13:56:09.577Z,101503.44
2023-10-06T13:58:37.266Z,101503.91
2023-10-06T14:01:05.517Z,101494.88
2023-10-06T14:03:33.173Z,101504.50
2023-10-06T14:06:02.445Z,101498.66
2023-10-06T14:08:34.751Z,101491.34
2023-10-06T14:11:02.734Z,101478.28
2023-10-06T14:13:34.937Z,101482.66
2023-10-06T14:16:02.285Z,101471.69
2023-10-06T14:18:34.294Z,101485.44
2023-10-06T14:21:07.618Z,101477.06
2023-10-06T14:23:45.065Z,101471.44
2023-10-06T14:26:19.722Z,101479.66
2023-10-06T14:28:48.850Z,101476.22
2023-10-06T14:31:38.615Z,101470.63
2023-10-06T14:34:31.446Z,101479.19
2023-10-06T14:37:00.935Z,101465.44
2023-10-06T14:39:51.252Z,101476.53
2023-10-06T14:42:36.795Z,101474.00
2023-10-06T14:45:24.486Z,101483.25
2023-10-06T14:47:52.461Z,101475.00
2023-10-06T14:50:26.492Z,101483.44
2023-10-06T14:52:56.054Z,101472.97
2023-10-06T14:55:25.020Z,101476.53
2023-10-06T14:57:53.657Z,101482.41
2023-10-06T15:00:23.222Z,101489.91
2023-10-06T15:02:51.618Z,101487.09
2023-10-06T15:05:19.420Z,101494.84
2023-10-06T15:07:47.404Z,101501.09
2023-10-06T15:10:19.608Z,101488.72
2023-10-06T15:12:49.499Z,101500.78
2023-10-06T15:15:17.136Z,101502.56
2023-10-06T15:17:47.753Z,101493.72
2023-10-06T15:20:22.157Z,101503.13
2023-10-06T15:22:52.342Z,101503.13
2023-10-06T15:25:20.357Z,101509.38
2023-10-06T15:27:49.379Z,101510.13
2023-10-06T15:30:17.882Z,101502.50
2023-10-06T15:32:45.267Z,101501.63
2023-10-06T15:35:15.436Z,101508.25
2023-10-06T15:37:42.834Z,101505.94
2023-10-06T15:40:20.236Z,101499.41
2023-10-06T15:43:00.567Z,101504.81
2023-10-06T15:45:37.409Z,101484.31
2023-10-06T15:48:05.467Z,101502.50
2023-10-06T15:50:34.495Z,101502.63
2023-10-06T15:53:04.461Z,101494.41
2023-10-06T15:55:36.796Z,101497.19
2023-10-06T15:58:05.549Z,101498.31
2023-10-06T16:00:38.542Z,101503.31
2023-10-06T16:03:08.655Z,101509.81
2023-10-06T16:05:41.385Z,101511.28
2023-10-06T16:08:12.140Z,101518.81
2023-10-06T16:10:46.970Z,101449.03
2023-10-06T16:13:15.820Z,101520.03
2023-10-06T16:15:59.725Z,101530.44
2023-10-06T16:18:33.768Z,101525.25
2023-10-06T16:21:01.516Z,101516.41
2023-10-06T16:23:28.687Z,101516.78
2023-10-06T16:26:03.285Z,101524.41
2023-10-06T16:28:31.911Z,101519.88
2023-10-06T16:30:59.160Z,101519.94
2023-10-06T16:33:27.713Z,101515.41
2023-10-06T16:35:55.185Z,101519.66
2023-10-06T16:38:22.549Z,101512.75
2023-10-06T16:40:50.070Z,101506.91
2023-10-06T16:43:19.414Z,101510.31
2023-10-06T16:45:48.338Z,101519.22
2023-10-06T16:48:16.969Z,101526.31
2023-10-06T16:50:44.425Z,101529.69
2023-10-06T16:53:12.229Z,101534.25
2023-10-06T16:55:42.397Z,101529.56
2023-10-06T16:58:10.252Z,101539.69
2023-10-06T17:00:38.993Z,101539.72
2023-10-06T17:03:11.070Z,101537.69
2023-10-06T17:05:42.922Z,101537.88
2023-10-06T17:08:09.983Z,101534.13
2023-10-06T17:10:37.884Z,101534.44
2023-10-06T17:13:06.445Z,101525.72
2023-10-06T17:15:36.328Z,101535.47
2023-10-06T17:18:04.844Z,101546.91
2023-10-06T17:20:36.125Z,101529.22
2023-10-06T17:23:09.964Z,101555.16
2023-10-06T17:25:39.311Z,101559.00
2023-10-06T17:28:09.038Z,101554.78
2023-10-06T17:30:37.702Z,101548.38
2023-10-06T17:33:08.526Z,101555.75
2023-10-06T17:35:37.344Z,101553.56
2023-10-06T17:38:05.116Z,101548.00
2023-10-06T17:40:37.896Z,101553.03
2023-10-06T17:43:08.519Z,101522.50
2023-10-06T17:45:38.269Z,101558.50
2023-10-06T17:48:08.978Z,101560.34
2023-10-06T17:50:45.329Z,101566.38
2023-10-06T17:53:12.615Z,101575.78
2023-10-06T17:55:40.040Z,101569.88
2023-10-06T17:58:06.956Z,101570.53
2023-10-06T18:00:35.001Z,101570.00
2023-10-06T18:03:04.580Z,101571.31
2023-10-06T18:05:32.467Z,101576.34
2023-10-06T18:08:02.876Z,101571.28
2023-10-06T18:10:30.425Z,101572.59
2023-10-06T18:12:58.103Z,101581.69
2023-10-06T18:15:26.638Z,101586.84
2023-10-06T18:17:59.787Z,101588.50
2023-10-06T18:20:29.594Z,101596.34
2023-10-06T18:22:57.442Z,101591.97
2023-10-06T18:25:29.169Z,101594.81
2023-10-06T18:27:56.229Z,101589.38
2023-10-06T18:30:26.508Z,101584.94
2023-10-06T18:32:53.978Z,101587.75
2023-10-06T18:35:21.404Z,101591.59
2023-10-06T18:37:48.861Z,101590.06
2023-10-06T18:40:16.505Z,101576.19
2023-10-06T18:42:45.122Z,101595.91
2023-10-06T18:45:14.287Z,101603.44
2023-10-06T18:47:43.886Z,101599.53
2023-10-06T18:50:18.863Z,101600.31
2023-10-06T18:52:47.265Z,101586.97
2023-10-06T18:55:15.200Z,101611.66
2023-10-06T18:57:46.514Z,101604.75
2023-10-06T19:00:15.434Z,101606.91
2023-10-06T19:02:45.330Z,101604.69
2023-10-06T19:05:13.008Z,101605.97
2023-10-06T19:07:40.219Z,101610.00
2023-10-06T19:10:12.055Z,101609.75
2023-10-06T19:12:39.298Z,101606.50
2023-10-06T19:15:09.398Z,101603.16
2023-10-06T19:17:37.972Z,101604.84
2023-10-06T19:20:08.563Z,101607.81
2023-10-06T19:22:39.434Z,101608.13
2023-10-06T19:25:12.759Z,101610.13
2023-10-06T19:27:39.867Z,101608.59
2023-10-06T19:30:12.034Z,101591.25
2023-10-06T19:32:41.653Z,101611.00
2023-10-06T19:35:09.609Z,101608.22
2023-10-06T19:37:37.241Z,101603.72
2023-10-06T19:40:09.510Z,101607.81
2023-10-06T19:42:37.378Z,101607.41
2023-10-06T19:45:08.597Z,101612.09
2023-10-06T19:47:38.281Z,101603.63
2023-10-06T19:50:13.242Z,101580.25
2023-10-06T19:52:41.645Z,101608.09
2023-10-06T19:55:09.693Z,101597.97
2023-10-06T19:57:37.745Z,101599.63
2023-10-06T20:00:13.450Z,101597.56
2023-10-06T20:02:42.568Z,101598.69
2023-10-06T20:05:12.848Z,101593.78
2023-10-06T20:07:40.570Z,101596.91
2023-10-06T20:10:13.856Z,101589.16
2023-10-06T20:12:42.273Z,101601.00
2023-10-06T20:15:10.592Z,101600.44
2023-10-06T20:17:37.842Z,101592.19
2023-10-06T20:20:08.002Z,101588.41
2023-10-06T20:22:38.346Z,101593.88
2023-10-06T20:25:08.112Z,101595.16
2023-10-06T20:27:35.145Z,101600.69
2023-10-06T20:30:07.030Z,101596.47
2023-10-06T20:32:37.943Z,101595.06
2023-10-06T20:35:08.634Z,101595.34
2023-10-06T20:37:36.422Z,101602.53
2023-10-06T20:40:08.029Z,101602.53
2023-10-06T20:42:38.179Z,101598.03
2023-10-06T20:45:06.806Z,101600.00
2023-10-06T20:47:35.056Z,101601.84
2023-10-06T20:50:08.610Z,101597.84
2023-10-06T20:52:37.363Z,101595.75
2023-10-06T20:55:05.443Z,101597.88
2023-10-06T20:57:32.518Z,101599.72
2023-10-06T21:00:00.000Z,101590.28
2023-10-06T21:02:27.823Z,101593.53
2023-10-06T21:04:55.323Z,101592.16
2023-10-06T21:07:23.226Z,101592.56
2023-10-06T21:09:51.896Z,101587.06
2023-10-06T21:12:21.907Z,101594.53
2023-10-06T21:14:49.653Z,101593.00
2023-10-06T21:17:17.283Z,101594.28
2023-10-06T21:19:45.499Z,101593.56
2023-10-06T21:22:14.768Z,101587.09
2023-10-06T21:24:42.274Z,101600.19
2023-10-06T21:27:10.957Z,101599.47
2023-10-06T21:29:38.197Z,101601.88
2023-10-06T21:32:05.527Z,101599.78
2023-10-06T21:34:33.023Z,101604.00
2023-10-06T21:36:59.972Z,101612.44
2023-10-06T21:39:27.425Z,101607.66
2023-10-06T21:41:54.572Z,101614.13
2023-10-06T21:44:23.488Z,101615.94
2023-10-06T21:46:50.524Z,101616.69
2023-10-06T21:49:18.015Z,101613.84
2023-10-06T21:51:45.403Z,101615.38
2023-10-06T21:54:12.932Z,101622.41
2023-10-06T21:56:39.872Z,101623.28
2023-10-06T21:59:07.318Z,101613.84
2023-10-06T22:01:36.541Z,101610.75
2023-10-06T22:04:04.278Z,101613.97
2023-10-06T22:06:31.567Z,101620.59
2023-10-06T22:08:59.112Z,101620.16
2023-10-06T22:11:26.362Z,101618.72
2023-10-06T22:13:54.740Z,101624.78
2023-10-06T22:16:22.063Z,101623.22
2023-10-06T22:18:50.810Z,101623.88
2023-10-06T22:21:18.152Z,101624.59
2023-10-06T22:23:47.258Z,101624.16
2023-10-06T22:26:14.274Z,101625.66
2023-10-06T22:28:41.495Z,101623.66
2023-10-06T22:31:10.431Z,101627.75
2023-10-06T22:33:38.117Z,101621.38
2023-10-06T22:36:07.332Z,101617.53
2023-10-06T22:38:35.385Z,101625.38
2023-10-06T22:41:02.438Z,101615.75
2023-10-06T22:43:30.483Z,101621.06
2023-10-06T22:45:57.674Z,101610.84
2023-10-06T22:48:24.950Z,101612.03
2023-10-06T22:50:52.082Z,101611.72
2023-10-06T22:53:23.376Z,101603.84
2023-10-06T22:55:52.391Z,101603.94
2023-10-06T22:58:19.890Z,101610.75
2023-10-06T23:00:46.900Z,101597.09
2023-10-06T23:03:14.978Z,101607.75
2023-10-06T23:05:42.089Z,101607.88
2023-10-06T23:08:10.554Z,101606.31
2023-10-06T23:10:39.064Z,101603.91
2023-10-06T23:13:08.334Z,101604.44
2023-10-06T23:15:35.391Z,101602.28
2023-10-06T23:18:02.862Z,101604.22
2023-10-06T23:20:30.267Z,101592.22
2023-10-06T23:22:59.523Z,101597.25
2023-10-06T23:25:37.217Z,101590.97
2023-10-06T23:28:08.196Z,101577.22
2023-10-06T23:30:35.813Z,101590.06
2023-10-06T23:33:03.512Z,101599.25
2023-10-06T23:35:30.585Z,101592.63
2023-10-06T23:37:58.389Z,101591.56
2023-10-06T23:40:26.665Z,101590.97
2023-10-06T23:42:58.457Z,101596.66
2023-10-06T23:45:32.947Z,101595.88
2023-10-06T23:48:10.530Z,101548.09
2023-10-06T23:50:42.308Z,101591.09
2023-10-06T23:53:10.371Z,101589.50
2023-10-06T23:55:43.435Z,101571.97
2023-10-06T23:58:17.518Z,101598.38
